WetterOnline ( http://www.wetteronline.de )

Wetter aktuell Paderborn

Aktuelles Wetter: Bad Lippspringe (158m)

6-stündlich | Neueste Meldungen
Ortszeit Temperatur Wetter
Do, 15.11. 1:00 5.6° C wolkenlos
Mi, 14.11. 19:00 6.8° C wolkig
Mi, 14.11. 13:00 12.7° C leicht bewölkt
Mi, 14.11. 7:00 8.0° C bewölkt
Mi, 14.11. 1:00 9.2° C bedeckt
Di, 13.11. 19:00 9.7° C wolkenlos
Di, 13.11. 13:00 12.2° C bedeckt
Di, 13.11. 7:00 10.1° C bedeckt
Ortszeit Temperatur Wetter
Do, 15.11. 5:30 4.9° C wolkenlos
Do, 15.11. 5:20 4.9° C wolkenlos
Do, 15.11. 5:10 4.7° C wolkenlos
Do, 15.11. 5:00 4.7° C wolkenlos
Do, 15.11. 4:50 4.7° C wolkenlos
Do, 15.11. 4:40 4.7° C fast wolkenlos
Do, 15.11. 4:30 4.2° C leicht bewölkt
Do, 15.11. 4:00 4.9° C leicht bewölkt
Do, 15.11. 3:30 5.2° C leicht bewölkt
Do, 15.11. 3:00 5.4° C leicht bewölkt
Do, 15.11. 2:30 5.2° C fast wolkenlos
Ortszeit Relative Feuchte Sichtweite
Do, 15.11. 1:00 93% 12 km
Mi, 14.11. 19:00 88% 18 km
Mi, 14.11. 13:00 64% 35 km
Mi, 14.11. 7:00 90% 30 km
Mi, 14.11. 1:00 84% 30 km
Di, 13.11. 19:00 79% 35 km
Di, 13.11. 13:00 72% 55 km
Di, 13.11. 7:00 94% 10 km
Ortszeit Relative Feuchte Sichtweite
Do, 15.11. 5:30 93% 11 km
Do, 15.11. 5:20 93% -
Do, 15.11. 5:10 94% -
Do, 15.11. 5:00 94% 10 km
Do, 15.11. 4:50 94% -
Do, 15.11. 4:40 93% -
Do, 15.11. 4:30 94% 8 km
Do, 15.11. 4:00 93% 11 km
Do, 15.11. 3:30 93% 12 km
Do, 15.11. 3:00 92% 12 km
Do, 15.11. 2:30 91% 12 km
Ortszeit Niederschlagsmenge Niederschlagsart
Do, 15.11. 1:00 0.0 l/m2 in 6 Std. -
Mi, 14.11. 19:00 0.0 l/m2 in 12 Std. -
Mi, 14.11. 13:00 0.0 l/m2 in 6 Std. -
Mi, 14.11. 7:00 0.0 l/m2 in 12 Std. -
Mi, 14.11. 1:00 0.0 l/m2 in 6 Std. -
Di, 13.11. 19:00 2 l/m2 in 12 Std. Regen
Di, 13.11. 13:00 0.2 l/m2 in 6 Std. Regen
Di, 13.11. 7:00 0.6 l/m2 in 12 Std. Regen
Ortszeit Niederschlagsmenge Niederschlagsart
Do, 15.11. 5:30 0.0 l/m2 in 1 Std. -
Do, 15.11. 5:20 keine Meldung -
Do, 15.11. 5:10 keine Meldung -
Do, 15.11. 5:00 0.0 l/m2 in 1 Std. -
Do, 15.11. 4:50 keine Meldung -
Do, 15.11. 4:40 keine Meldung -
Do, 15.11. 4:30 0.0 l/m2 in 1 Std. -
Do, 15.11. 4:00 0.0 l/m2 in 1 Std. -
Do, 15.11. 3:30 0.0 l/m2 in 1 Std. -
Do, 15.11. 3:00 0.0 l/m2 in 1 Std. -
Do, 15.11. 2:30 0.0 l/m2 in 1 Std. -
Ortszeit Stärke Spitze Richtung
km/h Bft. km/h Grad Sektor
Do, 15.11. 1:00 4 1 22 110° O
Mi, 14.11. 19:00 9 2 22 120° SO
Mi, 14.11. 13:00 7 2 18 160° S
Mi, 14.11. 7:00 6 1 19 200° S
Mi, 14.11. 1:00 11 2 22 230° SW
Di, 13.11. 19:00 14 3 50 220° SW
Di, 13.11. 13:00 22 4 47 240° SW
Di, 13.11. 7:00 7 2 11 200° S
Ortszeit Stärke Spitze Richtung
km/h Bft. km/h Grad Sektor
Do, 15.11. 5:30 11 2 18 120° SO
Do, 15.11. 5:20 11 2 - 120° SO
Do, 15.11. 5:10 9 2 - 120° SO
Do, 15.11. 5:00 7 2 18 120° SO
Do, 15.11. 4:50 7 2 - 120° SO
Do, 15.11. 4:40 6 1 - 110° O
Do, 15.11. 4:30 6 1 15 230° SW
Do, 15.11. 4:00 4 1 18 120° SO
Do, 15.11. 3:30 7 2 18 160° S
Do, 15.11. 3:00 6 1 13 110° O
Do, 15.11. 2:30 4 1 14 140° SO
Ortszeit Untergrenze Bedeckung Gattung
total tief tief mittel hoch
Do, 15.11. 1:00 - 0/8 0/8 - - -
Mi, 14.11. 19:00 9000 m 8/8 0/8 - - -
Mi, 14.11. 13:00 10500 m 8/8 0/8 - - -
Mi, 14.11. 7:00 750 m 7/8 7/8 - - -
Mi, 14.11. 1:00 510 m 8/8 8/8 - - -
Di, 13.11. 19:00 - 0/8 0/8 - - -
Di, 13.11. 13:00 1020 m 8/8 8/8 - - -
Di, 13.11. 7:00 660 m 8/8 8/8 - - -
Ortszeit Bedeckungsgrad in Achtel und Wolkenuntergrenze
Do, 15.11. 5:30 keine Wolken
Do, 15.11. 5:20 keine Wolken
Do, 15.11. 5:10 keine Wolken
Do, 15.11. 5:00 keine Wolken
Do, 15.11. 4:50 keine Wolken
Do, 15.11. 4:40 1(9000m)
Do, 15.11. 4:30 1(9000m) 3(10500m)
Do, 15.11. 4:00 5(10500m)
Do, 15.11. 3:30 3(9000m) 4(10500m)
Do, 15.11. 3:00 4(9000m)
Do, 15.11. 2:30 2(8700m)
Ortszeit Luftdruck NN (hPa) Tendenz (hPa in 3 Std.)
Do, 15.11. 1:00 1028 - 0,7
Mi, 14.11. 19:00 1029 - 0,1
Mi, 14.11. 13:00 1029 - 0,6
Mi, 14.11. 7:00 1029 - 0,4
Mi, 14.11. 1:00 1030 + 0,9
Di, 13.11. 19:00 1027 + 2,3
Di, 13.11. 13:00 1023 + 0,7
Di, 13.11. 7:00 1021 + 1,5
Ortszeit Luftdruck NN (hPa) Tendenz (hPa in 3 Std.)
Do, 15.11. 5:30 1027 - 0,5
Do, 15.11. 5:20 1027 keine Meldung
Do, 15.11. 5:10 1027 keine Meldung
Do, 15.11. 5:00 1027 - 0,3
Do, 15.11. 4:50 1027 keine Meldung
Do, 15.11. 4:40 1027 keine Meldung
Do, 15.11. 4:30 1027 - 0,5
Do, 15.11. 4:00 1027 - 0,3
Do, 15.11. 3:30 1027 - 0,5
Do, 15.11. 3:00 1028 - 0,3
Do, 15.11. 2:30 1028 - 0,5
Ortszeit Schneehöhe (cm)
Do, 15.11. 1:00 0
Mi, 14.11. 19:00 0
Mi, 14.11. 13:00 0
Mi, 14.11. 7:00 0
Mi, 14.11. 1:00 0
Di, 13.11. 19:00 0
Di, 13.11. 13:00 0
Di, 13.11. 7:00 0
Ortszeit Schneehöhe (cm)
Do, 15.11. 5:30 0
Do, 15.11. 5:20 0
Do, 15.11. 5:10 0
Do, 15.11. 5:00 0
Do, 15.11. 4:50 0
Do, 15.11. 4:40 0
Do, 15.11. 4:30 0
Do, 15.11. 4:00 0
Do, 15.11. 3:30 0
Do, 15.11. 3:00 0
Do, 15.11. 2:30 0
Link zu dieser Seite / Seite empfehlen

Das Wetter in ...